Time;durP1;ratioP1;P1;durP2;ratioP2;P2;SDS_P1;SDS_P2;PMS_P1;PMS_P2;Temp;Humidity;BMP_temperature;BMP_pressure;BME280_temperature;BME280_humidity;BME280_pressure;Samples;Min_cycle;Max_cycle;Signal;HPM_P1;HPM_P2
2022/12/12 00:00:11;;;;;;;31.58;13.70;;;;;;;-1.44;78.69;98221.44;5025825;28;20086;-77
2022/12/12 00:02:37;;;;;;;24.17;14.07;;;;;;;-1.41;78.24;98215.81;5031383;28;20040;-77
2022/12/12 00:05:04;;;;;;;34.20;15.82;;;;;;;-1.45;78.21;98220.63;5024865;28;20108;-76
2022/12/12 00:07:30;;;;;;;26.02;14.65;;;;;;;-1.52;77.99;98212.72;5019894;28;20032;-76
2022/12/12 00:09:55;;;;;;;28.13;14.63;;;;;;;-1.50;78.29;98217.75;5004335;28;20038;-77
2022/12/12 00:12:20;;;;;;;25.83;13.82;;;;;;;-1.49;78.00;98221.19;5009469;28;20029;-77
2022/12/12 00:14:46;;;;;;;30.23;14.70;;;;;;;-2.75;76.22;98227.75;5026239;28;20064;-76
2022/12/12 00:17:11;;;;;;;28.23;13.85;;;;;;;-3.10;78.54;98217.00;5022721;28;20132;-76
2022/12/12 00:19:36;;;;;;;32.42;16.20;;;;;;;-3.68;78.03;98227.28;5024478;28;20112;-76
2022/12/12 00:22:02;;;;;;;31.02;16.10;;;;;;;-3.52;80.82;98215.91;5029308;28;20041;-76
2022/12/12 00:24:27;;;;;;;40.75;15.25;;;;;;;-2.80;81.42;98225.69;5033314;28;20048;-76
2022/12/12 00:26:53;;;;;;;37.28;16.25;;;;;;;-3.19;79.03;98233.72;5027551;28;20506;-77
2022/12/12 00:29:18;;;;;;;35.95;16.10;;;;;;;-3.07;81.39;98228.88;5032781;28;20036;-76
2022/12/12 00:31:43;;;;;;;31.75;14.25;;;;;;;-2.25;81.46;98230.44;5026292;28;20112;-77
2022/12/12 00:34:09;;;;;;;29.58;15.30;;;;;;;-2.63;78.83;98228.91;5025342;28;20481;-77
2022/12/12 00:36:34;;;;;;;32.90;16.42;;;;;;;-4.08;77.36;98235.31;5026160;28;20025;-77
2022/12/12 00:38:59;;;;;;;40.83;17.95;;;;;;;-4.85;79.42;98242.13;5013121;28;20212;-77
2022/12/12 00:41:26;;;;;;;31.23;14.57;;;;;;;-4.09;81.91;98238.94;5024017;28;20033;-77
2022/12/12 00:43:51;;;;;;;31.45;14.23;;;;;;;-2.68;82.79;98234.69;5020700;28;20060;-76
2022/12/12 00:46:19;;;;;;;32.58;14.07;;;;;;;-2.59;79.09;98230.19;5029181;28;20036;-76
2022/12/12 00:48:45;;;;;;;27.98;14.57;;;;;;;-2.45;80.20;98227.56;5029689;28;20115;-77
2022/12/12 00:51:18;;;;;;;29.55;14.70;;;;;;;-2.13;80.18;98231.56;5030534;28;20156;-77
2022/12/12 00:53:43;;;;;;;27.55;13.55;;;;;;;-1.96;78.64;98238.19;5029475;28;20048;-77
2022/12/12 00:56:08;;;;;;;26.70;12.60;;;;;;;-2.77;77.71;98234.94;5035432;28;20103;-77
2022/12/12 00:58:34;;;;;;;27.23;15.35;;;;;;;-1.98;78.99;98245.41;5088241;23;20056;-77
2022/12/12 01:01:05;;;;;;;24.38;13.85;;;;;;;-1.91;78.33;98241.09;5047624;28;20403;-77
2022/12/12 01:03:35;;;;;;;27.02;13.88;;;;;;;-1.78;78.00;98250.88;5041226;28;20029;-76
2022/12/12 01:06:00;;;;;;;26.60;14.25;;;;;;;-1.86;78.42;98243.16;5044675;28;20051;-76
2022/12/12 01:08:26;;;;;;;25.58;13.10;;;;;;;-1.85;77.42;98239.53;5040915;28;20473;-76
2022/12/12 01:10:52;;;;;;;29.45;13.43;;;;;;;-1.73;77.17;98258.97;5040827;28;20029;-77
2022/12/12 01:13:17;;;;;;;28.50;14.50;;;;;;;-1.85;77.80;98253.41;5039199;28;20531;-77
2022/12/12 01:15:43;;;;;;;25.25;13.23;;;;;;;-1.86;77.30;98254.44;5040367;28;20033;-76
2022/12/12 01:18:08;;;;;;;24.60;12.43;;;;;;;-2.02;77.92;98262.47;5037034;28;20025;-76
2022/12/12 01:20:33;;;;;;;25.48;14.13;;;;;;;-1.89;77.69;98264.44;5045137;28;20029;-75
2022/12/12 01:22:59;;;;;;;27.33;13.70;;;;;;;-1.92;77.76;98264.81;5036835;28;20049;-76
2022/12/12 01:25:24;;;;;;;23.60;12.77;;;;;;;-1.99;77.28;98266.53;5038792;28;20049;-75
2022/12/12 01:27:50;;;;;;;29.73;14.32;;;;;;;-1.92;77.57;98259.59;5006384;28;21779;-76
2022/12/12 01:30:17;;;;;;;26.55;14.75;;;;;;;-1.97;77.22;98257.53;5038300;28;20432;-76
2022/12/12 01:32:43;;;;;;;26.83;12.68;;;;;;;-1.97;77.40;98267.97;5055404;28;20029;-76
2022/12/12 01:35:09;;;;;;;28.75;14.95;;;;;;;-2.12;77.29;98250.69;5044854;28;20044;-76
2022/12/12 01:37:36;;;;;;;26.05;12.65;;;;;;;-2.07;76.93;98259.59;5021192;28;20047;-76
2022/12/12 01:40:05;;;;;;;25.85;12.73;;;;;;;-1.95;76.37;98265.97;5039573;28;20533;-76
2022/12/12 01:42:31;;;;;;;26.27;13.43;;;;;;;-2.05;77.36;98265.44;5040387;28;20417;-76
2022/12/12 01:44:57;;;;;;;30.15;13.40;;;;;;;-2.10;77.03;98273.03;5043369;28;20033;-75
2022/12/12 01:47:23;;;;;;;29.38;14.50;;;;;;;-2.06;76.86;98274.28;5043707;28;20048;-76
2022/12/12 01:49:55;;;;;;;26.15;13.63;;;;;;;-2.07;77.56;98272.66;5043853;28;20477;-76
2022/12/12 01:52:27;;;;;;;30.35;13.45;;;;;;;-2.09;76.96;98276.44;5042930;28;20079;-75
2022/12/12 01:54:59;;;;;;;32.58;15.05;;;;;;;-2.43;76.60;98262.16;5043580;28;20481;-76
2022/12/12 01:57:39;;;;;;;23.92;12.88;;;;;;;-2.30;78.64;98275.41;5042863;28;20033;-76
2022/12/12 02:00:07;;;;;;;29.70;14.10;;;;;;;-2.10;77.51;98273.03;5046568;28;20037;-76
2022/12/12 02:02:32;;;;;;;26.20;14.10;;;;;;;-2.09;77.20;98282.50;5045426;28;20033;-76
2022/12/12 02:05:04;;;;;;;26.63;14.20;;;;;;;-2.19;77.43;98268.91;5042396;28;20041;-76
2022/12/12 02:07:29;;;;;;;26.02;14.45;;;;;;;-2.11;76.93;98274.03;5045522;28;20481;-75
2022/12/12 02:09:55;;;;;;;34.45;15.65;;;;;;;-2.12;76.46;98272.41;5042748;28;20041;-75
2022/12/12 02:12:20;;;;;;;35.20;15.48;;;;;;;-2.10;76.33;98280.06;5042049;28;20029;-75
2022/12/12 02:14:49;;;;;;;31.42;13.43;;;;;;;-2.13;76.75;98281.25;5043182;28;20024;-75
2022/12/12 02:17:38;;;;;;;32.42;14.85;;;;;;;-2.14;76.51;98266.53;5041083;28;20053;-74
2022/12/12 02:20:25;;;;;;;25.92;14.40;;;;;;;-2.09;77.05;98274.66;5044471;28;20139;-75
2022/12/12 02:23:21;;;;;;;27.23;14.15;;;;;;;-2.12;77.01;98280.25;5041454;28;20033;-75
2022/12/12 02:25:58;;;;;;;29.48;14.68;;;;;;;-2.07;75.89;98277.88;5040419;28;20115;-75
2022/12/12 02:28:42;;;;;;;27.73;13.10;;;;;;;-2.27;75.83;98279.44;5036097;28;20039;-75
2022/12/12 02:31:46;;;;;;;29.63;14.15;;;;;;;-2.52;77.15;98288.56;5043587;28;20111;-75
2022/12/12 02:34:23;;;;;;;28.67;13.70;;;;;;;-2.26;76.39;98283.69;5043119;28;20083;-75
2022/12/12 02:37:20;;;;;;;31.52;15.18;;;;;;;-4.91;76.73;98296.63;5039878;28;20033;-75
2022/12/12 02:40:09;;;;;;;31.85;16.27;;;;;;;-5.61;79.26;98300.69;5039728;28;20041;-75
2022/12/12 02:42:51;;;;;;;30.90;14.25;;;;;;;-5.16;81.95;98289.84;5037739;28;20037;-75
2022/12/12 02:45:17;;;;;;;29.05;15.13;;;;;;;-4.79;79.07;98293.53;5040744;28;20014;-75
2022/12/12 02:47:50;;;;;;;32.63;15.85;;;;;;;-4.92;79.97;98302.81;5043079;28;20119;-75
2022/12/12 02:50:22;;;;;;;36.88;15.55;;;;;;;-5.47;79.18;98303.47;5041780;28;20027;-75
2022/12/12 02:52:48;;;;;;;34.58;14.98;;;;;;;-6.03;80.39;98310.38;5042889;28;20067;-75
2022/12/12 02:55:14;;;;;;;36.20;16.30;;;;;;;-6.29;80.35;98319.00;5038947;28;20029;-75
2022/12/12 02:57:40;;;;;;;39.35;15.85;;;;;;;-6.06;82.20;98305.47;5042079;28;20021;-74
2022/12/12 03:00:07;;;;;;;30.67;14.48;;;;;;;-5.05;82.97;98313.72;5043712;28;20087;-74
2022/12/12 03:02:38;;;;;;;35.92;16.40;;;;;;;-5.78;79.19;98314.63;5039313;28;20028;-74
2022/12/12 03:08:33;;;;;;;32.45;14.02;;;;;;;-5.31;83.12;98305.28;5042311;28;20104;-75
2022/12/12 03:11:03;;;;;;;29.42;12.98;;;;;;;-3.58;82.65;98306.06;5045943;28;20086;-76
2022/12/12 03:14:02;;;;;;;32.72;14.05;;;;;;;-3.55;80.12;98305.72;5033949;28;20098;-76
2022/12/12 03:16:47;;;;;;;33.58;16.67;;;;;;;-5.39;77.61;98313.06;5041823;28;20206;-76
2022/12/12 03:19:27;;;;;;;39.35;15.95;;;;;;;-6.24;78.78;98316.78;5036908;28;20363;-75
2022/12/12 03:22:06;;;;;;;39.20;16.75;;;;;;;-6.05;80.90;98309.72;5040506;28;20032;-75
2022/12/12 03:24:47;;;;;;;37.38;15.70;;;;;;;-5.44;81.68;98312.75;5040577;28;20035;-75
2022/12/12 03:27:34;;;;;;;31.23;14.20;;;;;;;-5.55;81.16;98311.25;5043644;28;20037;-75
2022/12/12 03:30:15;;;;;;;29.83;13.82;;;;;;;-5.66;81.14;98319.38;5043311;28;20029;-75
2022/12/12 03:32:53;;;;;;;30.35;14.10;;;;;;;-5.04;80.37;98310.13;5040337;28;20501;-75
2022/12/12 03:35:25;;;;;;;37.13;16.77;;;;;;;-5.92;79.10;98307.47;5040360;28;20029;-75
2022/12/12 03:37:57;;;;;;;35.60;15.63;;;;;;;-6.01;80.21;98318.81;5040446;28;20196;-75
2022/12/12 03:40:35;;;;;;;31.42;14.90;;;;;;;-5.70;80.96;98312.84;5041333;28;20044;-75
2022/12/12 03:43:13;;;;;;;37.08;15.15;;;;;;;-4.62;82.37;98309.94;5041129;28;20047;-75
2022/12/12 03:45:57;;;;;;;33.60;14.32;;;;;;;-3.23;80.52;98304.69;5039954;28;20020;-75
2022/12/12 03:48:28;;;;;;;30.67;14.68;;;;;;;-2.94;78.29;98293.53;5038496;28;20056;-75
2022/12/12 03:51:04;;;;;;;33.75;13.55;;;;;;;-2.86;77.52;98309.91;5040077;28;20024;-75
2022/12/12 03:53:35;;;;;;;29.08;13.98;;;;;;;-2.69;77.31;98300.16;5043668;28;20075;-75
2022/12/12 03:56:12;;;;;;;30.38;13.25;;;;;;;-2.61;76.09;98313.13;5038010;28;20393;-75
2022/12/12 03:58:52;;;;;;;30.17;14.05;;;;;;;-2.73;76.08;98310.13;5038651;28;20035;-76
2022/12/12 04:01:24;;;;;;;30.58;14.27;;;;;;;-2.69;76.76;98315.81;5041723;28;20025;-76
2022/12/12 04:04:04;;;;;;;26.20;12.63;;;;;;;-2.62;76.61;98317.53;5040661;28;20033;-75
2022/12/12 04:06:36;;;;;;;24.02;12.10;;;;;;;-2.63;76.81;98309.88;5040314;28;20039;-76
2022/12/12 04:15:14;;;;;;;29.33;13.88;;;;;;;-2.57;75.95;98322.22;5037560;28;20496;-75
2022/12/12 04:17:52;;;;;;;27.02;13.18;;;;;;;-2.62;75.48;98314.13;5042509;28;20033;-75
2022/12/12 04:23:33;;;;;;;27.35;13.77;;;;;;;-2.61;75.41;98313.13;5039500;28;20035;-74
2022/12/12 04:29:15;;;;;;;26.83;14.07;;;;;;;-2.62;75.31;98314.13;5039469;28;20144;-75
2022/12/12 04:31:50;;;;;;;26.02;13.07;;;;;;;-2.95;75.29;98316.22;5040015;28;20052;-75
2022/12/12 04:34:27;;;;;;;21.98;13.10;;;;;;;-3.75;76.06;98311.53;5038774;28;20089;-75
2022/12/12 04:36:53;;;;;;;28.42;13.73;;;;;;;-3.09;76.25;98311.75;5040760;28;20031;-75
2022/12/12 04:39:20;;;;;;;28.88;13.73;;;;;;;-4.13;76.38;98305.41;5038477;28;20120;-75
2022/12/12 04:41:48;;;;;;;26.52;13.98;;;;;;;-3.01;76.78;98313.50;5031996;23;20046;-78
2022/12/12 04:44:17;;;;;;;30.27;14.27;;;;;;;-2.76;76.26;98318.34;5008252;28;20501;-78
2022/12/12 04:46:44;;;;;;;28.58;13.40;;;;;;;-2.67;75.65;98316.47;5004891;28;20038;-78
2022/12/12 04:49:15;;;;;;;27.95;13.85;;;;;;;-2.76;75.02;98318.34;5000472;28;20044;-78
2022/12/12 04:51:46;;;;;;;26.80;13.15;;;;;;;-2.73;75.22;98317.16;5006371;28;20124;-77
2022/12/12 04:54:20;;;;;;;28.45;13.20;;;;;;;-2.67;75.27;98321.69;5008808;28;20030;-78
2022/12/12 04:56:51;;;;;;;29.75;12.82;;;;;;;-2.80;75.21;98324.91;5004974;28;20033;-78
2022/12/12 04:59:17;;;;;;;30.10;14.18;;;;;;;-2.89;75.61;98305.06;5008233;28;20029;-78
2022/12/12 05:02:10;;;;;;;24.42;11.93;;;;;;;-2.65;75.63;98327.53;5002164;28;20041;-78
2022/12/12 05:04:45;;;;;;;23.75;12.55;;;;;;;-2.84;75.06;98312.38;5004648;28;20711;-77
2022/12/12 05:07:27;;;;;;;28.48;13.88;;;;;;;-4.14;73.76;98319.38;4999590;28;20026;-77
2022/12/12 05:09:52;;;;;;;33.60;14.93;;;;;;;-5.33;75.12;98326.22;5004857;28;20079;-77
2022/12/12 05:12:19;;;;;;;32.58;14.63;;;;;;;-5.47;77.13;98318.25;5007726;28;20057;-77
2022/12/12 05:14:45;;;;;;;30.05;13.13;;;;;;;-5.45;77.55;98340.53;5005403;28;20022;-78
2022/12/12 05:17:15;;;;;;;31.23;14.35;;;;;;;-3.73;79.48;98336.47;5005915;28;20034;-78
2022/12/12 05:19:41;;;;;;;32.03;13.68;;;;;;;-3.33;77.29;98319.75;5000696;28;20525;-77
2022/12/12 05:22:06;;;;;;;25.30;13.68;;;;;;;-4.24;75.15;98331.81;4983892;28;20038;-78
2022/12/12 05:24:31;;;;;;;27.95;12.90;;;;;;;-5.32;77.07;98319.25;4991255;28;20030;-77
2022/12/12 05:26:58;;;;;;;27.55;12.60;;;;;;;-3.83;79.17;98323.66;5003276;28;20061;-78
2022/12/12 05:29:23;;;;;;;27.10;13.10;;;;;;;-3.45;77.24;98335.00;5000720;28;20083;-77
2022/12/12 05:31:49;;;;;;;26.48;12.80;;;;;;;-4.79;76.32;98337.78;5003674;28;20042;-77
2022/12/12 05:34:14;;;;;;;34.88;16.80;;;;;;;-5.17;76.12;98340.22;5010574;28;20117;-77
2022/12/12 05:36:39;;;;;;;28.65;15.70;;;;;;;-5.44;78.66;98330.94;5002701;28;20125;-77
2022/12/12 05:39:05;;;;;;;30.10;13.35;;;;;;;-5.48;78.33;98316.63;5008444;28;20050;-78
2022/12/12 05:41:30;;;;;;;32.42;14.05;;;;;;;-4.30;79.41;98303.84;5007618;28;20037;-78
2022/12/12 05:43:56;;;;;;;35.35;15.65;;;;;;;-5.61;76.06;98345.69;5010111;28;20042;-79
2022/12/12 05:46:21;;;;;;;33.50;15.85;;;;;;;-6.43;77.72;98344.75;5008097;28;20509;-77
2022/12/12 05:48:49;;;;;;;37.67;15.50;;;;;;;-5.21;82.55;98339.72;5004799;28;20482;-77
2022/12/12 05:51:18;;;;;;;29.70;14.68;;;;;;;-3.97;79.21;98313.94;5005177;28;20049;-78
2022/12/12 05:53:44;;;;;;;36.03;14.63;;;;;;;-3.47;76.99;98336.97;5010713;28;20037;-78
2022/12/12 05:56:11;;;;;;;30.73;14.23;;;;;;;-3.33;76.12;98338.84;4994271;28;20044;-78
2022/12/12 05:58:37;;;;;;;35.92;16.38;;;;;;;-6.09;74.43;98352.56;5010664;28;20041;-78
2022/12/12 06:01:04;;;;;;;40.17;17.45;;;;;;;-6.57;78.00;98340.94;5011216;28;20088;-77
2022/12/12 06:03:30;;;;;;;40.63;16.20;;;;;;;-6.23;78.19;98354.75;5007177;28;20065;-77
2022/12/12 06:05:55;;;;;;;35.20;16.65;;;;;;;-5.85;79.86;98331.88;5015283;28;20119;-78
2022/12/12 06:08:20;;;;;;;40.58;17.13;;;;;;;-5.75;77.90;98356.69;5003056;28;20653;-78
2022/12/12 06:10:46;;;;;;;37.63;15.73;;;;;;;-6.44;78.30;98354.31;5011857;28;20058;-78
2022/12/12 06:13:11;;;;;;;35.60;14.50;;;;;;;-5.90;79.74;98347.09;5011895;28;20030;-77
2022/12/12 06:15:40;;;;;;;31.63;15.93;;;;;;;-4.33;80.92;98349.25;5021918;28;20156;-78
2022/12/12 06:18:07;;;;;;;34.28;15.88;;;;;;;-4.04;78.12;98348.69;5011175;28;20033;-78
2022/12/12 06:20:33;;;;;;;39.92;17.30;;;;;;;-6.21;75.63;98362.38;5010621;28;20105;-78
2022/12/12 06:22:58;;;;;;;36.85;16.17;;;;;;;-7.08;77.81;98377.22;5010500;28;20116;-77
2022/12/12 06:25:24;;;;;;;37.22;16.77;;;;;;;-6.74;79.96;98364.34;5010728;28;20049;-77
2022/12/12 06:27:49;;;;;;;38.88;16.73;;;;;;;-5.39;81.75;98372.84;5008236;28;20038;-78
2022/12/12 06:30:15;;;;;;;36.30;15.05;;;;;;;-4.84;80.49;98350.47;5005818;28;20541;-78
2022/12/12 06:32:41;;;;;;;31.10;13.52;;;;;;;-3.87;78.17;98355.44;5010313;28;20167;-78
2022/12/12 06:35:07;;;;;;;28.58;12.98;;;;;;;-3.91;76.68;98356.78;5009634;28;20029;-76
2022/12/12 06:37:33;;;;;;;31.33;16.33;;;;;;;-5.35;75.59;98356.78;5009515;28;20057;-78
2022/12/12 06:39:59;;;;;;;38.20;16.48;;;;;;;-5.70;77.43;98377.03;5015129;28;20076;-78
2022/12/12 06:42:24;;;;;;;33.70;14.75;;;;;;;-4.17;78.60;98379.66;5008904;28;20042;-78
2022/12/12 06:44:49;;;;;;;33.00;14.13;;;;;;;-4.08;77.73;98368.22;5021345;28;20081;-78
2022/12/12 06:47:15;;;;;;;33.35;14.98;;;;;;;-4.38;76.14;98382.78;5007917;28;20030;-77
2022/12/12 06:49:40;;;;;;;78.88;31.75;;;;;;;-5.22;75.49;98386.72;5009188;28;20065;-78
2022/12/12 06:52:06;;;;;;;41.17;18.25;;;;;;;-5.73;77.01;98391.13;5009022;28;20033;-78
2022/12/12 06:54:31;;;;;;;71.80;28.85;;;;;;;-5.76;77.55;98390.63;5009753;28;20045;-78
2022/12/12 06:56:56;;;;;;;69.72;29.60;;;;;;;-6.39;77.29;98392.78;5007643;28;20199;-77
2022/12/12 06:59:22;;;;;;;40.45;18.75;;;;;;;-5.32;81.17;98376.44;5009558;28;20053;-78
2022/12/12 07:01:47;;;;;;;41.95;18.55;;;;;;;-4.87;78.82;98368.22;5000996;28;20026;-78
2022/12/12 07:04:13;;;;;;;44.13;17.42;;;;;;;-3.85;78.21;98389.97;5001980;28;20064;-77
2022/12/12 07:06:40;;;;;;;37.97;16.27;;;;;;;-3.56;75.65;98387.53;5008232;28;20593;-78
2022/12/12 07:09:07;;;;;;;38.60;17.83;;;;;;;-3.51;75.34;98389.63;5007983;28;20026;-78
2022/12/12 07:11:32;;;;;;;40.25;15.13;;;;;;;-3.49;74.96;98385.88;5008762;28;20022;-78
2022/12/12 07:13:58;;;;;;;40.63;16.70;;;;;;;-3.42;73.75;98373.78;5009513;28;20502;-79
2022/12/12 07:16:24;;;;;;;35.20;17.02;;;;;;;-3.37;73.60;98383.72;5004718;28;20022;-78
2022/12/12 07:18:49;;;;;;;38.90;16.20;;;;;;;-3.44;74.59;98386.19;5008184;28;20410;-78
2022/12/12 07:21:19;;;;;;;29.85;15.35;;;;;;;-3.39;73.71;98381.28;5001738;28;20038;-78
2022/12/12 07:23:44;;;;;;;34.67;16.30;;;;;;;-3.44;74.63;98383.59;5002297;28;20125;-78
2022/12/12 07:26:19;;;;;;;34.42;17.13;;;;;;;-3.58;74.00;98380.91;5006400;28;20073;-78
2022/12/12 07:28:44;;;;;;;36.63;15.97;;;;;;;-4.00;74.55;98376.03;5005666;28;20064;-79
2022/12/12 07:31:12;;;;;;;33.03;16.92;;;;;;;-3.47;74.81;98386.53;5005197;28;20771;-78
2022/12/12 07:33:38;;;;;;;36.30;16.17;;;;;;;-3.42;73.84;98394.66;5009107;28;20120;-79
2022/12/12 07:36:04;;;;;;;33.45;17.70;;;;;;;-4.15;74.66;98388.13;5010719;28;20117;-79
2022/12/12 07:38:30;;;;;;;34.60;15.20;;;;;;;-3.99;74.97;98401.09;5007668;28;20057;-78
2022/12/12 07:41:01;;;;;;;33.05;15.50;;;;;;;-5.24;75.20;98407.66;5007817;28;20117;-78
2022/12/12 07:43:26;;;;;;;40.95;17.65;;;;;;;-6.35;76.75;98404.47;5006553;28;20128;-77
2022/12/12 07:45:52;;;;;;;38.80;16.77;;;;;;;-6.43;78.74;98405.28;5022179;28;20145;-78
2022/12/12 07:48:17;;;;;;;38.72;16.65;;;;;;;-5.87;78.07;98390.94;5009807;28;20072;-79
2022/12/12 07:50:43;;;;;;;48.45;19.70;;;;;;;-6.22;78.40;98404.88;5005141;28;20364;-80
2022/12/12 07:53:08;;;;;;;35.85;15.80;;;;;;;-5.98;79.29;98412.00;5003479;28;20036;-77
2022/12/12 07:55:34;;;;;;;42.75;18.17;;;;;;;-4.41;78.78;98416.97;5006168;28;20053;-77
2022/12/12 07:57:59;;;;;;;31.77;15.43;;;;;;;-4.87;75.69;98400.22;5005954;28;20037;-77
2022/12/12 08:00:27;;;;;;;42.92;18.50;;;;;;;-6.77;76.43;98426.91;5006386;28;20070;-77
2022/12/12 08:02:53;;;;;;;40.65;18.90;;;;;;;-6.98;79.80;98424.63;5005655;28;20042;-77
2022/12/12 08:05:18;;;;;;;45.42;18.05;;;;;;;-6.40;80.40;98417.13;5008530;28;20053;-77
2022/12/12 08:07:44;;;;;;;34.90;18.17;;;;;;;-6.38;80.25;98423.81;5003845;28;20083;-77
2022/12/12 08:10:09;;;;;;;39.85;18.02;;;;;;;-6.21;79.29;98419.50;5004911;28;20441;-79
2022/12/12 08:12:34;;;;;;;45.42;19.38;;;;;;;-6.83;79.11;98435.25;5005485;28;20395;-79
2022/12/12 08:15:00;;;;;;;45.30;17.85;;;;;;;-7.17;80.13;98432.53;5008206;28;20061;-78
2022/12/12 08:17:26;;;;;;;48.67;19.58;;;;;;;-7.38;81.33;98416.47;5005643;28;20025;-77
2022/12/12 08:19:51;;;;;;;42.35;18.02;;;;;;;-7.32;81.24;98434.03;5007765;28;20141;-77
2022/12/12 08:22:16;;;;;;;43.67;20.85;;;;;;;-7.54;82.36;98445.59;5006070;28;20046;-77
2022/12/12 08:24:42;;;;;;;72.32;27.42;;;;;;;-7.92;82.81;98446.59;4990098;28;20084;-78
2022/12/12 08:27:07;;;;;;;67.75;25.00;;;;;;;-7.87;83.94;98454.75;5007425;28;20037;-77
2022/12/12 08:29:32;;;;;;;70.22;25.08;;;;;;;-7.93;83.51;98450.13;5009838;28;20113;-78
2022/12/12 08:31:58;;;;;;;61.95;25.30;;;;;;;-7.99;83.70;98462.84;5009205;28;20030;-79
2022/12/12 08:34:23;;;;;;;56.33;23.20;;;;;;;-8.04;84.33;98462.47;5005666;28;20024;-78
2022/12/12 08:36:49;;;;;;;68.90;27.02;;;;;;;-8.21;84.87;98452.84;5003581;28;20694;-79
2022/12/12 08:39:15;;;;;;;55.50;25.10;;;;;;;-8.27;85.10;98458.59;5005436;28;20029;-78
2022/12/12 08:41:43;;;;;;;45.58;20.65;;;;;;;-8.19;84.98;98469.03;5006003;28;20080;-78
2022/12/12 08:44:13;;;;;;;53.63;21.58;;;;;;;-8.02;85.00;98476.91;5006688;28;20531;-78
2022/12/12 08:46:40;;;;;;;40.75;17.90;;;;;;;-8.16;84.81;98481.69;5001308;28;20029;-78
2022/12/12 08:49:05;;;;;;;46.10;20.20;;;;;;;-8.45;85.66;98461.91;5004539;28;20378;-77
2022/12/12 08:51:30;;;;;;;40.47;17.00;;;;;;;-8.16;85.68;98477.34;5003899;28;20032;-78
2022/12/12 08:53:56;;;;;;;44.53;18.33;;;;;;;-8.21;86.29;98466.56;5007198;28;20026;-78
2022/12/12 08:56:23;;;;;;;45.03;17.15;;;;;;;-7.91;85.74;98487.09;5007038;28;21861;-76
2022/12/12 08:58:49;;;;;;;44.03;18.08;;;;;;;-7.90;84.89;98488.69;5005589;28;20044;-77
2022/12/12 09:01:17;;;;;;;39.13;16.20;;;;;;;-7.15;85.14;98464.31;5007661;28;20490;-78
2022/12/12 09:03:43;;;;;;;52.38;20.42;;;;;;;-7.27;84.02;98479.25;5012949;28;20038;-79
2022/12/12 09:06:09;;;;;;;48.25;17.02;;;;;;;-6.25;85.75;98467.53;5009025;28;20037;-79
2022/12/12 09:08:35;;;;;;;44.22;18.30;;;;;;;-6.44;83.00;98471.09;5017813;28;20515;-77
2022/12/12 09:11:00;;;;;;;47.17;19.67;;;;;;;-5.12;82.60;98471.44;5017598;28;20092;-79
2022/12/12 09:13:25;;;;;;;42.63;18.45;;;;;;;-5.38;82.73;98481.09;5025032;28;20026;-80
2022/12/12 09:15:51;;;;;;;39.22;17.40;;;;;;;-4.37;80.95;98480.78;5007002;28;20018;-78
2022/12/12 09:18:19;;;;;;;40.80;18.63;;;;;;;-3.87;79.65;98477.94;5012179;28;20548;-78
2022/12/12 09:20:53;;;;;;;37.58;17.23;;;;;;;-3.57;77.95;98479.00;5014227;28;20060;-79
2022/12/12 09:23:20;;;;;;;42.72;19.48;;;;;;;-3.78;77.43;98470.91;5012219;28;20030;-78
2022/12/12 09:25:46;;;;;;;38.30;18.10;;;;;;;-3.96;78.28;98484.97;5012130;28;20113;-80
2022/12/12 09:28:13;;;;;;;40.67;19.10;;;;;;;-3.89;77.50;98487.72;5012133;28;20677;-80
2022/12/12 09:30:39;;;;;;;46.92;21.25;;;;;;;-3.83;78.73;98487.88;5012382;28;20026;-79
2022/12/12 09:33:05;;;;;;;40.50;19.25;;;;;;;-3.92;78.41;98482.84;5011467;28;20363;-79
2022/12/12 09:35:30;;;;;;;48.25;20.02;;;;;;;-3.61;77.92;98472.50;5011989;28;20034;-80
2022/12/12 09:37:56;;;;;;;37.38;19.92;;;;;;;-3.95;77.91;98475.34;5027675;28;20060;-80
2022/12/12 09:40:32;;;;;;;41.10;19.48;;;;;;;-3.85;78.27;98458.56;5013143;28;20083;-80
2022/12/12 09:42:58;;;;;;;34.72;17.33;;;;;;;-3.46;77.94;98482.06;5008544;28;20064;-80
2022/12/12 09:45:25;;;;;;;34.17;17.02;;;;;;;-3.74;77.54;98478.25;5012154;28;20393;-81
2022/12/12 09:47:55;;;;;;;34.90;17.88;;;;;;;-3.48;77.62;98470.16;5008171;28;20041;-79
2022/12/12 09:50:30;;;;;;;33.28;17.40;;;;;;;-3.45;77.60;98481.06;5012949;28;20028;-81
2022/12/12 09:53:01;;;;;;;36.30;16.70;;;;;;;-3.31;77.39;98476.94;5012292;28;20030;-79
2022/12/12 09:55:39;;;;;;;31.27;17.20;;;;;;;-3.53;76.82;98470.66;5011261;28;20168;-79
2022/12/12 09:58:26;;;;;;;34.60;17.88;;;;;;;-4.76;80.36;98470.16;5010495;28;20435;-80
2022/12/12 10:00:57;;;;;;;34.10;16.20;;;;;;;-5.18;81.87;98471.25;5016515;28;20083;-80
2022/12/12 10:04:00;;;;;;;40.67;18.67;;;;;;;-5.39;82.28;98451.69;5013809;28;20041;-80
2022/12/12 10:06:31;;;;;;;35.65;15.73;;;;;;;-5.71;83.52;98454.16;5017882;28;20073;-81
2022/12/12 10:09:30;;;;;;;36.97;17.98;;;;;;;-4.54;82.76;98471.31;4994089;28;20061;-78
2022/12/12 10:11:56;;;;;;;39.15;17.42;;;;;;;-4.80;81.30;98468.88;5011096;28;20398;-79
2022/12/12 10:14:43;;;;;;;41.63;17.35;;;;;;;-5.42;82.93;98446.00;5012932;28;20026;-79
2022/12/12 10:17:34;;;;;;;39.70;17.80;;;;;;;-5.55;83.46;98475.00;5003301;28;20409;-79
2022/12/12 10:20:12;;;;;;;37.50;17.02;;;;;;;-4.50;83.84;98480.47;5004463;28;20449;-78
2022/12/12 10:23:07;;;;;;;43.00;21.13;;;;;;;-5.39;83.46;98475.06;5015020;28;20034;-79
2022/12/12 10:25:48;;;;;;;39.72;16.25;;;;;;;-4.17;84.07;98466.41;5004267;28;20403;-80
2022/12/12 10:28:19;;;;;;;34.78;17.38;;;;;;;-3.19;79.72;98468.56;5018861;28;20026;-79
2022/12/12 10:31:04;;;;;;;35.60;17.98;;;;;;;-4.58;80.83;98475.22;5014147;28;20048;-79
2022/12/12 10:33:35;;;;;;;31.88;17.00;;;;;;;-3.91;81.12;98474.06;5015891;28;20550;-79
2022/12/12 10:36:18;;;;;;;31.02;16.33;;;;;;;-3.37;79.87;98464.56;5016330;28;20120;-79
2022/12/12 10:38:52;;;;;;;37.25;18.02;;;;;;;-4.35;79.88;98467.59;5012039;28;20049;-80
2022/12/12 10:41:38;;;;;;;36.47;15.93;;;;;;;-4.06;81.94;98467.88;5019825;22;20042;-82
2022/12/12 10:44:16;;;;;;;36.03;17.45;;;;;;;-2.89;80.14;98464.31;5028680;28;20037;-80
2022/12/12 10:46:44;;;;;;;34.00;15.82;;;;;;;-3.17;79.61;98458.75;5030401;28;20021;-80
2022/12/12 10:49:16;;;;;;;34.47;17.50;;;;;;;-3.74;79.10;98470.41;5043791;28;20031;-80
2022/12/12 10:51:46;;;;;;;29.13;14.88;;;;;;;-4.24;83.34;98459.44;5033877;28;20030;-80
2022/12/12 10:54:21;;;;;;;34.30;15.52;;;;;;;-4.26;80.41;98467.41;5032293;28;20045;-80
2022/12/12 10:57:07;;;;;;;33.60;17.38;;;;;;;-4.49;83.41;98458.63;5030552;28;20052;-80
2022/12/12 11:00:15;;;;;;;35.58;17.25;;;;;;;-3.55;83.58;98456.97;5028610;28;20036;-80
2022/12/12 11:02:42;;;;;;;30.13;15.75;;;;;;;-3.31;81.94;98454.28;5023047;28;20084;-80
2022/12/12 11:05:16;;;;;;;35.95;18.35;;;;;;;-3.78;80.31;98450.06;5043735;28;20030;-80
2022/12/12 11:07:44;;;;;;;31.95;14.50;;;;;;;-3.16;81.05;98447.34;5032375;28;20499;-80
2022/12/12 11:10:22;;;;;;;31.77;15.75;;;;;;;-2.86;80.24;98452.72;5026614;28;20034;-81
2022/12/12 11:13:14;;;;;;;39.10;19.65;;;;;;;-2.91;79.35;98445.41;5031967;28;20029;-81
2022/12/12 11:15:49;;;;;;;31.70;15.82;;;;;;;-2.59;80.24;98446.97;5025446;28;20041;-81
2022/12/12 11:18:17;;;;;;;28.60;14.80;;;;;;;-2.39;78.54;98445.50;5024815;28;20025;-81
2022/12/12 11:20:54;;;;;;;39.17;17.95;;;;;;;-2.36;77.71;98450.38;5027714;28;20075;-81
2022/12/12 11:23:27;;;;;;;34.92;17.25;;;;;;;-2.65;77.37;98447.66;5045476;28;20026;-81
2022/12/12 11:25:57;;;;;;;29.10;14.27;;;;;;;-2.44;79.39;98442.59;5030556;28;20037;-80
2022/12/12 11:28:26;;;;;;;27.80;13.82;;;;;;;-2.34;79.02;98435.34;5029158;28;20031;-80
2022/12/12 11:30:54;;;;;;;33.38;16.00;;;;;;;-2.16;77.75;98435.00;5015902;28;20021;-80
2022/12/12 11:33:51;;;;;;;34.88;16.30;;;;;;;-1.97;77.61;98444.94;5029566;28;20028;-80
2022/12/12 11:36:33;;;;;;;35.47;16.73;;;;;;;-1.87;77.72;98445.47;5026664;28;20052;-80
2022/12/12 11:39:01;;;;;;;32.75;15.38;;;;;;;-2.05;77.89;98448.44;5029053;28;20033;-80
2022/12/12 11:41:27;;;;;;;30.02;14.75;;;;;;;-2.63;80.00;98435.25;5027539;28;20578;-80
2022/12/12 11:43:56;;;;;;;36.22;17.55;;;;;;;-2.93;80.88;98457.81;5031109;28;20069;-80
2022/12/12 11:46:25;;;;;;;33.30;15.77;;;;;;;-2.48;80.73;98446.56;5039761;28;20120;-80